sensor_id;sensor_type;location;lat;lon;timestamp;pressure;altitude;pressure_sealevel;temperature;humidity
76011;BME280;64701;43.536;1.478;2023-01-31T00:00:10;101060.69;;;3.28;70.87
76011;BME280;64701;43.536;1.478;2023-01-31T00:02:35;101056.19;;;3.31;70.29
76011;BME280;64701;43.536;1.478;2023-01-31T00:05:00;101049.28;;;3.29;70.39
76011;BME280;64701;43.536;1.478;2023-01-31T00:07:26;101049.91;;;3.33;69.77
76011;BME280;64701;43.536;1.478;2023-01-31T00:09:52;101043.09;;;3.31;70.55
76011;BME280;64701;43.536;1.478;2023-01-31T00:12:17;101041.09;;;3.34;70.32
76011;BME280;64701;43.536;1.478;2023-01-31T00:14:42;101036.09;;;3.31;70.40
76011;BME280;64701;43.536;1.478;2023-01-31T00:17:08;101040.16;;;3.35;70.00
76011;BME280;64701;43.536;1.478;2023-01-31T00:19:33;101043.50;;;3.37;70.26
76011;BME280;64701;43.536;1.478;2023-01-31T00:21:58;101040.06;;;3.37;70.46
76011;BME280;64701;43.536;1.478;2023-01-31T00:24:23;101031.25;;;3.38;69.84
76011;BME280;64701;43.536;1.478;2023-01-31T00:26:49;101039.94;;;3.38;70.53
76011;BME280;64701;43.536;1.478;2023-01-31T00:29:20;101030.41;;;3.37;70.43
76011;BME280;64701;43.536;1.478;2023-01-31T00:31:46;101025.94;;;3.39;69.89
76011;BME280;64701;43.536;1.478;2023-01-31T00:34:11;101025.78;;;3.41;70.20
76011;BME280;64701;43.536;1.478;2023-01-31T00:36:36;101031.97;;;3.40;70.38
76011;BME280;64701;43.536;1.478;2023-01-31T00:39:02;101023.19;;;3.41;69.93
76011;BME280;64701;43.536;1.478;2023-01-31T00:41:28;101023.31;;;3.39;69.97
76011;BME280;64701;43.536;1.478;2023-01-31T00:43:54;101028.53;;;3.39;70.16
76011;BME280;64701;43.536;1.478;2023-01-31T00:46:19;101028.31;;;3.42;69.72
76011;BME280;64701;43.536;1.478;2023-01-31T00:48:45;101026.63;;;3.41;69.90
76011;BME280;64701;43.536;1.478;2023-01-31T00:51:10;101028.31;;;3.42;69.62
76011;BME280;64701;43.536;1.478;2023-01-31T00:53:36;101020.44;;;3.42;69.72
76011;BME280;64701;43.536;1.478;2023-01-31T00:56:03;101019.72;;;3.40;70.11
76011;BME280;64701;43.536;1.478;2023-01-31T00:58:28;101017.09;;;3.40;70.07
76011;BME280;64701;43.536;1.478;2023-01-31T01:00:54;101017.09;;;3.40;69.53
76011;BME280;64701;43.536;1.478;2023-01-31T01:03:19;101022.56;;;3.37;70.04
76011;BME280;64701;43.536;1.478;2023-01-31T01:05:44;101018.06;;;3.39;69.99
76011;BME280;64701;43.536;1.478;2023-01-31T01:08:09;101007.81;;;3.36;69.74
76011;BME280;64701;43.536;1.478;2023-01-31T01:10:35;101009.47;;;3.37;69.79
76011;BME280;64701;43.536;1.478;2023-01-31T01:13:00;101012.09;;;3.37;70.10
76011;BME280;64701;43.536;1.478;2023-01-31T01:15:26;101007.06;;;3.34;69.79
76011;BME280;64701;43.536;1.478;2023-01-31T01:17:51;101011.34;;;3.35;70.28
76011;BME280;64701;43.536;1.478;2023-01-31T01:20:17;101009.91;;;3.31;70.48
76011;BME280;64701;43.536;1.478;2023-01-31T01:22:42;101001.31;;;3.29;70.09
76011;BME280;64701;43.536;1.478;2023-01-31T01:25:07;101005.94;;;3.25;70.23
76011;BME280;64701;43.536;1.478;2023-01-31T01:27:33;101003.22;;;3.27;70.09
76011;BME280;64701;43.536;1.478;2023-01-31T01:29:58;100993.91;;;3.23;70.29
76011;BME280;64701;43.536;1.478;2023-01-31T01:32:24;100996.66;;;3.21;70.98
76011;BME280;64701;43.536;1.478;2023-01-31T01:34:49;100991.28;;;3.23;70.26
76011;BME280;64701;43.536;1.478;2023-01-31T01:37:15;100986.19;;;3.21;70.82
76011;BME280;64701;43.536;1.478;2023-01-31T01:39:49;100991.53;;;3.20;71.06
76011;BME280;64701;43.536;1.478;2023-01-31T01:42:16;100983.44;;;3.23;70.33
76011;BME280;64701;43.536;1.478;2023-01-31T01:44:49;100993.41;;;3.18;70.80
76011;BME280;64701;43.536;1.478;2023-01-31T01:49:45;100995.06;;;3.19;70.82
76011;BME280;64701;43.536;1.478;2023-01-31T01:52:12;100994.34;;;3.17;71.10
76011;BME280;64701;43.536;1.478;2023-01-31T01:54:45;101001.16;;;3.19;70.75
76011;BME280;64701;43.536;1.478;2023-01-31T01:57:12;101000.06;;;3.22;70.41
76011;BME280;64701;43.536;1.478;2023-01-31T01:59:42;100992.22;;;3.22;70.88
76011;BME280;64701;43.536;1.478;2023-01-31T02:02:09;100990.44;;;3.22;70.74
76011;BME280;64701;43.536;1.478;2023-01-31T02:04:36;100994.75;;;3.23;70.95
76011;BME280;64701;43.536;1.478;2023-01-31T02:07:02;100998.09;;;3.25;70.37
76011;BME280;64701;43.536;1.478;2023-01-31T02:11:55;100989.41;;;3.25;71.02
76011;BME280;64701;43.536;1.478;2023-01-31T02:14:21;100995.59;;;3.24;70.54
76011;BME280;64701;43.536;1.478;2023-01-31T02:16:47;100999.88;;;3.25;70.38
76011;BME280;64701;43.536;1.478;2023-01-31T02:19:24;100991.28;;;3.23;71.28
76011;BME280;64701;43.536;1.478;2023-01-31T02:35:23;100983.94;;;3.28;70.98
76011;BME280;64701;43.536;1.478;2023-01-31T02:37:57;100983.94;;;3.28;70.98
76011;BME280;64701;43.536;1.478;2023-01-31T02:40:28;100984.78;;;3.28;70.82
76011;BME280;64701;43.536;1.478;2023-01-31T02:43:02;100983.94;;;3.28;70.77
76011;BME280;64701;43.536;1.478;2023-01-31T02:45:33;100986.47;;;3.29;71.08
76011;BME280;64701;43.536;1.478;2023-01-31T02:50:40;100988.22;;;3.29;70.77
76011;BME280;64701;43.536;1.478;2023-01-31T02:53:13;100990.00;;;3.28;71.34
76011;BME280;64701;43.536;1.478;2023-01-31T02:58:25;100990.00;;;3.28;70.77
76011;BME280;64701;43.536;1.478;2023-01-31T03:00:54;100989.41;;;3.25;71.29
76011;BME280;64701;43.536;1.478;2023-01-31T03:03:32;100979.69;;;3.27;71.53
76011;BME280;64701;43.536;1.478;2023-01-31T03:08:40;100978.84;;;3.26;71.51
76011;BME280;64701;43.536;1.478;2023-01-31T03:11:09;100968.22;;;3.28;71.32
76011;BME280;64701;43.536;1.478;2023-01-31T03:13:44;100975.38;;;3.26;71.13
76011;BME280;64701;43.536;1.478;2023-01-31T03:16:27;100982.50;;;3.24;71.17
76011;BME280;64701;43.536;1.478;2023-01-31T03:19:15;100973.19;;;3.20;71.25
76011;BME280;64701;43.536;1.478;2023-01-31T03:24:48;100976.44;;;3.11;71.22
76011;BME280;64701;43.536;1.478;2023-01-31T03:27:14;100975.84;;;3.07;72.09
76011;BME280;64701;43.536;1.478;2023-01-31T03:29:40;100979.50;;;3.05;71.97
76011;BME280;64701;43.536;1.478;2023-01-31T03:32:17;100970.19;;;3.01;71.79
76011;BME280;64701;43.536;1.478;2023-01-31T03:34:45;100975.66;;;2.98;72.47
76011;BME280;64701;43.536;1.478;2023-01-31T03:37:12;100977.53;;;2.96;72.39
76011;BME280;64701;43.536;1.478;2023-01-31T03:39:45;100971.56;;;2.94;72.73
76011;BME280;64701;43.536;1.478;2023-01-31T03:42:15;100977.03;;;2.91;72.67
76011;BME280;64701;43.536;1.478;2023-01-31T03:44:52;100979.84;;;2.87;72.69
76011;BME280;64701;43.536;1.478;2023-01-31T03:47:27;100980.69;;;2.88;72.85
76011;BME280;64701;43.536;1.478;2023-01-31T03:49:54;100985.31;;;2.84;72.54
76011;BME280;64701;43.536;1.478;2023-01-31T03:52:25;100983.63;;;2.83;72.69
76011;BME280;64701;43.536;1.478;2023-01-31T03:54:54;100977.78;;;2.80;72.57
76011;BME280;64701;43.536;1.478;2023-01-31T03:57:28;100984.06;;;2.77;73.00
76011;BME280;64701;43.536;1.478;2023-01-31T03:59:56;100983.31;;;2.75;73.18
76011;BME280;64701;43.536;1.478;2023-01-31T04:02:22;100985.94;;;2.75;73.13
76011;BME280;64701;43.536;1.478;2023-01-31T04:04:53;100989.47;;;2.74;72.92
76011;BME280;64701;43.536;1.478;2023-01-31T04:07:21;100994.94;;;2.71;73.16
76011;BME280;64701;43.536;1.478;2023-01-31T04:09:46;100998.47;;;2.70;73.37
76011;BME280;64701;43.536;1.478;2023-01-31T04:12:12;100996.81;;;2.69;73.39
76011;BME280;64701;43.536;1.478;2023-01-31T04:14:38;100993.25;;;2.70;73.34
76011;BME280;64701;43.536;1.478;2023-01-31T04:17:03;100994.19;;;2.69;73.86
76011;BME280;64701;43.536;1.478;2023-01-31T04:19:28;101001.84;;;2.72;73.18
76011;BME280;64701;43.536;1.478;2023-01-31T04:21:53;101005.16;;;2.74;73.58
76011;BME280;64701;43.536;1.478;2023-01-31T04:24:19;101006.00;;;2.75;73.53
76011;BME280;64701;43.536;1.478;2023-01-31T04:26:44;101012.72;;;2.79;73.37
76011;BME280;64701;43.536;1.478;2023-01-31T04:29:09;101009.97;;;2.80;73.78
76011;BME280;64701;43.536;1.478;2023-01-31T04:31:35;101001.00;;;2.84;73.38
76011;BME280;64701;43.536;1.478;2023-01-31T04:34:00;101009.56;;;2.86;73.14
76011;BME280;64701;43.536;1.478;2023-01-31T04:36:25;101005.06;;;2.88;73.77
76011;BME280;64701;43.536;1.478;2023-01-31T04:38:51;101002.25;;;2.92;73.51
76011;BME280;64701;43.536;1.478;2023-01-31T04:41:16;101002.97;;;2.94;73.33
76011;BME280;64701;43.536;1.478;2023-01-31T04:43:41;101012.59;;;2.93;73.15
76011;BME280;64701;43.536;1.478;2023-01-31T04:46:07;101007.06;;;2.98;73.00
76011;BME280;64701;43.536;1.478;2023-01-31T04:48:32;101015.84;;;2.97;73.49
76011;BME280;64701;43.536;1.478;2023-01-31T04:50:58;101018.22;;;3.00;73.27
76011;BME280;64701;43.536;1.478;2023-01-31T04:53:23;101021.78;;;2.99;72.95
76011;BME280;64701;43.536;1.478;2023-01-31T04:55:48;101018.22;;;3.00;73.10
76011;BME280;64701;43.536;1.478;2023-01-31T04:58:14;101024.22;;;3.02;72.98
76011;BME280;64701;43.536;1.478;2023-01-31T05:00:39;101025.88;;;3.03;72.95
76011;BME280;64701;43.536;1.478;2023-01-31T05:03:04;101028.38;;;3.04;73.15
76011;BME280;64701;43.536;1.478;2023-01-31T05:05:31;101031.63;;;3.08;73.05
76011;BME280;64701;43.536;1.478;2023-01-31T05:07:56;101036.53;;;3.12;72.41
76011;BME280;64701;43.536;1.478;2023-01-31T05:10:21;101032.13;;;3.13;73.13
76011;BME280;64701;43.536;1.478;2023-01-31T05:12:46;101030.97;;;3.17;73.02
76011;BME280;64701;43.536;1.478;2023-01-31T05:15:12;101030.03;;;3.18;72.59
76011;BME280;64701;43.536;1.478;2023-01-31T05:17:37;101036.09;;;3.18;72.48
76011;BME280;64701;43.536;1.478;2023-01-31T05:20:03;101040.50;;;3.18;73.09
76011;BME280;64701;43.536;1.478;2023-01-31T05:22:28;101039.66;;;3.17;72.82
76011;BME280;64701;43.536;1.478;2023-01-31T05:24:53;101042.19;;;3.19;73.11
76011;BME280;64701;43.536;1.478;2023-01-31T05:27:19;101054.94;;;3.23;72.90
76011;BME280;64701;43.536;1.478;2023-01-31T05:29:44;101050.53;;;3.24;73.52
76011;BME280;64701;43.536;1.478;2023-01-31T05:32:10;101050.53;;;3.24;72.96
76011;BME280;64701;43.536;1.478;2023-01-31T05:34:35;101052.22;;;3.25;73.46
76011;BME280;64701;43.536;1.478;2023-01-31T05:37:01;101055.59;;;3.27;73.10
76011;BME280;64701;43.536;1.478;2023-01-31T05:39:26;101050.34;;;3.27;73.12
76011;BME280;64701;43.536;1.478;2023-01-31T05:41:52;101056.28;;;3.29;72.81
76011;BME280;64701;43.536;1.478;2023-01-31T05:44:17;101055.34;;;3.30;73.12
76011;BME280;64701;43.536;1.478;2023-01-31T05:46:43;101052.72;;;3.30;73.04
76011;BME280;64701;43.536;1.478;2023-01-31T05:49:08;101047.50;;;3.30;73.21
76011;BME280;64701;43.536;1.478;2023-01-31T05:51:34;101049.28;;;3.29;73.11
76011;BME280;64701;43.536;1.478;2023-01-31T05:53:59;101050.84;;;3.32;72.97
76011;BME280;64701;43.536;1.478;2023-01-31T05:56:24;101056.00;;;3.34;73.64
76011;BME280;64701;43.536;1.478;2023-01-31T05:58:50;101055.75;;;3.37;73.01
76011;BME280;64701;43.536;1.478;2023-01-31T06:01:19;101053.03;;;3.38;73.13
76011;BME280;64701;43.536;1.478;2023-01-31T06:03:45;101052.81;;;3.41;73.18
76011;BME280;64701;43.536;1.478;2023-01-31T06:06:10;101047.56;;;3.41;72.94
76011;BME280;64701;43.536;1.478;2023-01-31T06:08:36;101056.38;;;3.40;73.05
76011;BME280;64701;43.536;1.478;2023-01-31T06:11:02;101050.19;;;3.41;73.06
76011;BME280;64701;43.536;1.478;2023-01-31T06:13:28;101049.25;;;3.42;73.19
76011;BME280;64701;43.536;1.478;2023-01-31T06:15:54;101055.44;;;3.41;73.70
76011;BME280;64701;43.536;1.478;2023-01-31T06:18:19;101056.91;;;3.45;73.22
76011;BME280;64701;43.536;1.478;2023-01-31T06:20:44;101055.00;;;3.47;73.28
76011;BME280;64701;43.536;1.478;2023-01-31T06:23:10;101060.13;;;3.49;73.39
76011;BME280;64701;43.536;1.478;2023-01-31T06:25:35;101065.03;;;3.53;72.83
76011;BME280;64701;43.536;1.478;2023-01-31T06:28:00;101062.41;;;3.53;73.11
76011;BME280;64701;43.536;1.478;2023-01-31T06:30:26;101069.34;;;3.54;73.15
76011;BME280;64701;43.536;1.478;2023-01-31T06:32:51;101066.81;;;3.53;73.38
76011;BME280;64701;43.536;1.478;2023-01-31T06:35:16;101060.75;;;3.52;73.38
76011;BME280;64701;43.536;1.478;2023-01-31T06:37:41;101078.13;;;3.53;73.18
76011;BME280;64701;43.536;1.478;2023-01-31T06:40:07;101072.88;;;3.53;73.51
76011;BME280;64701;43.536;1.478;2023-01-31T06:42:32;101061.47;;;3.54;73.35
76011;BME280;64701;43.536;1.478;2023-01-31T06:44:58;101058.66;;;3.57;73.30
76011;BME280;64701;43.536;1.478;2023-01-31T06:47:23;101061.97;;;3.59;73.06
76011;BME280;64701;43.536;1.478;2023-01-31T06:49:49;101061.78;;;3.62;72.90
76011;BME280;64701;43.536;1.478;2023-01-31T06:52:14;101074.25;;;3.59;73.77
76011;BME280;64701;43.536;1.478;2023-01-31T06:54:39;101067.72;;;3.64;72.77
76011;BME280;64701;43.536;1.478;2023-01-31T06:57:05;101064.28;;;3.64;73.45
76011;BME280;64701;43.536;1.478;2023-01-31T06:59:30;101072.13;;;3.64;73.50
76011;BME280;64701;43.536;1.478;2023-01-31T07:01:56;101063.22;;;3.66;73.10
76011;BME280;64701;43.536;1.478;2023-01-31T07:04:21;101067.03;;;3.62;74.12
76011;BME280;64701;43.536;1.478;2023-01-31T07:06:46;101066.19;;;3.62;73.56
76011;BME280;64701;43.536;1.478;2023-01-31T07:09:12;101076.84;;;3.59;74.15
76011;BME280;64701;43.536;1.478;2023-01-31T07:11:37;101075.91;;;3.60;73.65
76011;BME280;64701;43.536;1.478;2023-01-31T07:14:03;101079.47;;;3.59;73.52
76011;BME280;64701;43.536;1.478;2023-01-31T07:16:28;101083.38;;;3.53;74.76
76011;BME280;64701;43.536;1.478;2023-01-31T07:18:54;101084.94;;;3.56;73.89
76011;BME280;64701;43.536;1.478;2023-01-31T07:21:20;101084.00;;;3.57;73.45
76011;BME280;64701;43.536;1.478;2023-01-31T07:23:46;101082.94;;;3.59;73.92
76011;BME280;64701;43.536;1.478;2023-01-31T07:26:11;101088.91;;;3.61;74.25
76011;BME280;64701;43.536;1.478;2023-01-31T07:28:36;101086.06;;;3.64;73.40
76011;BME280;64701;43.536;1.478;2023-01-31T07:31:05;101091.09;;;3.67;72.23
76011;BME280;64701;43.536;1.478;2023-01-31T07:33:32;101104.09;;;3.69;72.94
76011;BME280;64701;43.536;1.478;2023-01-31T07:35:57;101101.34;;;3.70;72.58
76011;BME280;64701;43.536;1.478;2023-01-31T07:38:22;101101.25;;;3.72;73.13
76011;BME280;64701;43.536;1.478;2023-01-31T07:40:47;101107.09;;;3.76;72.83
76011;BME280;64701;43.536;1.478;2023-01-31T07:43:13;101112.22;;;3.77;72.86
76011;BME280;64701;43.536;1.478;2023-01-31T07:45:38;101109.41;;;3.80;72.96
76011;BME280;64701;43.536;1.478;2023-01-31T07:48:06;101113.56;;;3.83;72.83
76011;BME280;64701;43.536;1.478;2023-01-31T07:50:31;101115.03;;;3.87;72.33
76011;BME280;64701;43.536;1.478;2023-01-31T07:52:57;101116.69;;;3.88;72.26
76011;BME280;64701;43.536;1.478;2023-01-31T07:55:22;101117.31;;;3.91;72.28
76011;BME280;64701;43.536;1.478;2023-01-31T07:57:48;101122.34;;;3.94;71.93
76011;BME280;64701;43.536;1.478;2023-01-31T08:00:13;101122.84;;;3.99;71.59
76011;BME280;64701;43.536;1.478;2023-01-31T08:02:57;101119.91;;;4.04;72.27
76011;BME280;64701;43.536;1.478;2023-01-31T08:05:43;101129.22;;;4.08;71.76
76011;BME280;64701;43.536;1.478;2023-01-31T08:08:09;101128.88;;;4.13;72.18
76011;BME280;64701;43.536;1.478;2023-01-31T08:10:34;101128.44;;;4.19;71.67
76011;BME280;64701;43.536;1.478;2023-01-31T08:13:00;101125.47;;;4.23;71.49
76011;BME280;64701;43.536;1.478;2023-01-31T08:15:25;101128.63;;;4.28;71.48
76011;BME280;64701;43.536;1.478;2023-01-31T08:17:50;101130.06;;;4.32;71.03
76011;BME280;64701;43.536;1.478;2023-01-31T08:20:16;101126.88;;;4.40;71.02
76011;BME280;64701;43.536;1.478;2023-01-31T08:22:42;101133.66;;;4.42;71.02
76011;BME280;64701;43.536;1.478;2023-01-31T08:25:08;101135.50;;;4.53;71.13
76011;BME280;64701;43.536;1.478;2023-01-31T08:27:34;101133.03;;;4.63;70.58
76011;BME280;64701;43.536;1.478;2023-01-31T08:29:59;101134.25;;;4.70;70.83
76011;BME280;64701;43.536;1.478;2023-01-31T08:32:24;101132.97;;;4.75;70.87
76011;BME280;64701;43.536;1.478;2023-01-31T08:34:49;101133.09;;;4.85;70.33
76011;BME280;64701;43.536;1.478;2023-01-31T08:37:15;101139.56;;;4.92;70.29
76011;BME280;64701;43.536;1.478;2023-01-31T08:39:40;101131.13;;;5.00;69.90
76011;BME280;64701;43.536;1.478;2023-01-31T08:42:05;101134.22;;;5.05;70.06
76011;BME280;64701;43.536;1.478;2023-01-31T08:44:31;101131.03;;;5.12;70.16
76011;BME280;64701;43.536;1.478;2023-01-31T08:46:56;101137.47;;;5.19;70.27
76011;BME280;64701;43.536;1.478;2023-01-31T08:49:24;101147.03;;;5.31;69.92
76011;BME280;64701;43.536;1.478;2023-01-31T08:51:49;101153.25;;;5.42;69.38
76011;BME280;64701;43.536;1.478;2023-01-31T08:54:15;101166.25;;;5.43;70.91
76011;BME280;64701;43.536;1.478;2023-01-31T08:56:40;101174.38;;;5.51;70.04
76011;BME280;64701;43.536;1.478;2023-01-31T08:59:05;101171.41;;;5.56;70.09
76011;BME280;64701;43.536;1.478;2023-01-31T09:01:31;101170.69;;;5.65;69.53
76011;BME280;64701;43.536;1.478;2023-01-31T09:03:56;101175.00;;;5.77;69.47
76011;BME280;64701;43.536;1.478;2023-01-31T09:06:22;101173.06;;;5.79;70.08
76011;BME280;64701;43.536;1.478;2023-01-31T09:08:48;101169.25;;;5.83;69.22
76011;BME280;64701;43.536;1.478;2023-01-31T09:11:14;101173.34;;;5.87;69.36
76011;BME280;64701;43.536;1.478;2023-01-31T09:13:43;101173.91;;;6.02;68.99
76011;BME280;64701;43.536;1.478;2023-01-31T09:16:09;101173.03;;;6.24;68.35
76011;BME280;64701;43.536;1.478;2023-01-31T09:18:36;101171.41;;;6.54;67.61
76011;BME280;64701;43.536;1.478;2023-01-31T09:21:02;101153.25;;;6.72;66.89
76011;BME280;64701;43.536;1.478;2023-01-31T09:23:28;101157.75;;;6.81;66.23
76011;BME280;64701;43.536;1.478;2023-01-31T09:25:54;101151.03;;;6.88;66.46
76011;BME280;64701;43.536;1.478;2023-01-31T09:28:19;101148.94;;;6.92;66.32
76011;BME280;64701;43.536;1.478;2023-01-31T09:30:45;101156.94;;;7.02;66.01
76011;BME280;64701;43.536;1.478;2023-01-31T09:33:10;101148.84;;;7.14;65.77
76011;BME280;64701;43.536;1.478;2023-01-31T09:35:36;101151.25;;;7.27;65.73
76011;BME280;64701;43.536;1.478;2023-01-31T09:38:01;101140.38;;;7.41;65.59
76011;BME280;64701;43.536;1.478;2023-01-31T09:40:27;101139.75;;;7.58;64.81
76011;BME280;64701;43.536;1.478;2023-01-31T09:42:55;101126.78;;;7.76;65.12
76011;BME280;64701;43.536;1.478;2023-01-31T09:45:31;101135.03;;;8.11;64.28
76011;BME280;64701;43.536;1.478;2023-01-31T09:47:57;101146.53;;;8.70;63.15
76011;BME280;64701;43.536;1.478;2023-01-31T09:52:52;101136.31;;;10.68;59.34
76011;BME280;64701;43.536;1.478;2023-01-31T09:55:18;101144.06;;;11.04;57.45
76011;BME280;64701;43.536;1.478;2023-01-31T10:00:15;101147.50;;;10.79;57.29
76011;BME280;64701;43.536;1.478;2023-01-31T10:10:36;101147.75;;;10.05;58.03
76011;BME280;64701;43.536;1.478;2023-01-31T10:13:04;101151.16;;;9.98;58.82
76011;BME280;64701;43.536;1.478;2023-01-31T10:18:21;101150.19;;;9.89;58.86
76011;BME280;64701;43.536;1.478;2023-01-31T10:23:20;101135.72;;;9.93;58.71
76011;BME280;64701;43.536;1.478;2023-01-31T10:25:49;101137.41;;;9.84;58.99
76011;BME280;64701;43.536;1.478;2023-01-31T10:35:41;101136.94;;;10.44;58.27
76011;BME280;64701;43.536;1.478;2023-01-31T10:38:13;101131.41;;;10.55;56.93
76011;BME280;64701;43.536;1.478;2023-01-31T10:40:40;101122.56;;;11.08;58.19
76011;BME280;64701;43.536;1.478;2023-01-31T10:43:10;101118.16;;;11.50;56.45
76011;BME280;64701;43.536;1.478;2023-01-31T10:45:38;101116.66;;;11.73;54.72
76011;BME280;64701;43.536;1.478;2023-01-31T10:48:20;101118.91;;;12.10;54.46
76011;BME280;64701;43.536;1.478;2023-01-31T10:53:29;101112.75;;;14.17;50.44
76011;BME280;64701;43.536;1.478;2023-01-31T10:58:23;101107.88;;;16.07;46.78
76011;BME280;64701;43.536;1.478;2023-01-31T11:00:48;101103.56;;;16.91;45.71
76011;BME280;64701;43.536;1.478;2023-01-31T11:03:14;101101.81;;;17.67;42.91
76011;BME280;64701;43.536;1.478;2023-01-31T11:05:47;101101.38;;;18.11;42.50
76011;BME280;64701;43.536;1.478;2023-01-31T11:08:19;101087.63;;;18.93;39.34
76011;BME280;64701;43.536;1.478;2023-01-31T11:10:51;101092.41;;;19.75;40.09
76011;BME280;64701;43.536;1.478;2023-01-31T11:13:17;101084.72;;;20.23;39.49
76011;BME280;64701;43.536;1.478;2023-01-31T11:15:43;101078.09;;;20.57;38.26
76011;BME280;64701;43.536;1.478;2023-01-31T11:18:30;101068.94;;;21.32;39.40
76011;BME280;64701;43.536;1.478;2023-01-31T11:20:53;101063.56;;;22.28;38.54
76011;BME280;64701;43.536;1.478;2023-01-31T11:23:22;101052.75;;;22.28;33.96
76011;BME280;64701;43.536;1.478;2023-01-31T11:25:49;101050.84;;;23.05;36.06
76011;BME280;64701;43.536;1.478;2023-01-31T11:28:18;101053.13;;;23.48;35.45
76011;BME280;64701;43.536;1.478;2023-01-31T11:30:46;101049.31;;;23.73;32.62
76011;BME280;64701;43.536;1.478;2023-01-31T11:35:57;101046.84;;;24.61;35.99
76011;BME280;64701;43.536;1.478;2023-01-31T11:38:22;101032.13;;;24.07;29.62
76011;BME280;64701;43.536;1.478;2023-01-31T11:40:48;101035.53;;;24.48;30.37
76011;BME280;64701;43.536;1.478;2023-01-31T11:45:42;101023.88;;;24.64;31.28
76011;BME280;64701;43.536;1.478;2023-01-31T11:50:41;101020.66;;;25.22;30.15
76011;BME280;64701;43.536;1.478;2023-01-31T11:55:42;101010.81;;;26.40;29.89
76011;BME280;64701;43.536;1.478;2023-01-31T11:58:14;101007.81;;;27.26;27.93
76011;BME280;64701;43.536;1.478;2023-01-31T12:00:51;101005.50;;;26.92;27.37
76011;BME280;64701;43.536;1.478;2023-01-31T12:03:17;101005.09;;;26.36;28.43
76011;BME280;64701;43.536;1.478;2023-01-31T12:05:43;101002.94;;;25.58;29.62
76011;BME280;64701;43.536;1.478;2023-01-31T12:10:54;101010.06;;;24.82;32.69
76011;BME280;64701;43.536;1.478;2023-01-31T12:13:20;101000.03;;;24.16;31.33
76011;BME280;64701;43.536;1.478;2023-01-31T12:15:59;101003.25;;;23.84;32.20
76011;BME280;64701;43.536;1.478;2023-01-31T12:18:43;101003.47;;;23.14;33.86
76011;BME280;64701;43.536;1.478;2023-01-31T12:28:53;100989.13;;;22.09;35.59
76011;BME280;64701;43.536;1.478;2023-01-31T12:31:31;100990.38;;;22.07;34.83
76011;BME280;64701;43.536;1.478;2023-01-31T12:39:25;100982.09;;;22.20;34.78
76011;BME280;64701;43.536;1.478;2023-01-31T12:44:38;100986.59;;;21.18;36.89
76011;BME280;64701;43.536;1.478;2023-01-31T12:49:55;100977.94;;;21.46;37.31
76011;BME280;64701;43.536;1.478;2023-01-31T13:00:05;100963.91;;;21.74;35.83
76011;BME280;64701;43.536;1.478;2023-01-31T13:07:49;100960.13;;;25.38;30.73
76011;BME280;64701;43.536;1.478;2023-01-31T13:10:19;100960.00;;;25.28;29.59
76011;BME280;64701;43.536;1.478;2023-01-31T13:12:48;100957.53;;;25.05;31.56
76011;BME280;64701;43.536;1.478;2023-01-31T13:18:00;100952.28;;;23.76;31.92
76011;BME280;64701;43.536;1.478;2023-01-31T13:20:32;100945.59;;;23.39;32.85
76011;BME280;64701;43.536;1.478;2023-01-31T13:23:00;100949.13;;;22.99;33.08
76011;BME280;64701;43.536;1.478;2023-01-31T13:27:59;100939.41;;;22.52;34.46
76011;BME280;64701;43.536;1.478;2023-01-31T13:30:40;100940.69;;;25.03;33.36
76011;BME280;64701;43.536;1.478;2023-01-31T13:38:51;100933.44;;;24.31;30.44
76011;BME280;64701;43.536;1.478;2023-01-31T13:41:34;100927.66;;;22.81;32.31
76011;BME280;64701;43.536;1.478;2023-01-31T13:44:01;100928.16;;;21.18;33.95
76011;BME280;64701;43.536;1.478;2023-01-31T13:49:02;100928.91;;;19.27;36.44
76011;BME280;64701;43.536;1.478;2023-01-31T13:51:40;100922.72;;;18.75;38.08
76011;BME280;64701;43.536;1.478;2023-01-31T13:54:13;100927.06;;;18.44;38.66
76011;BME280;64701;43.536;1.478;2023-01-31T13:56:40;100921.53;;;17.99;39.44
76011;BME280;64701;43.536;1.478;2023-01-31T13:59:09;100933.41;;;17.50;40.22
76011;BME280;64701;43.536;1.478;2023-01-31T14:01:35;100933.06;;;16.71;41.22
76011;BME280;64701;43.536;1.478;2023-01-31T14:14:41;100927.44;;;14.96;45.21
76011;BME280;64701;43.536;1.478;2023-01-31T14:17:11;100922.91;;;15.11;45.31
76011;BME280;64701;43.536;1.478;2023-01-31T14:22:15;100924.28;;;15.58;44.82
76011;BME280;64701;43.536;1.478;2023-01-31T14:42:57;100931.75;;;17.49;40.62
76011;BME280;64701;43.536;1.478;2023-01-31T14:53:13;100926.13;;;15.58;44.03
76011;BME280;64701;43.536;1.478;2023-01-31T14:58:23;100925.41;;;14.54;46.26
76011;BME280;64701;43.536;1.478;2023-01-31T15:00:50;100928.22;;;14.23;46.88
76011;BME280;64701;43.536;1.478;2023-01-31T15:03:22;100931.63;;;13.72;48.84
76011;BME280;64701;43.536;1.478;2023-01-31T15:05:50;100926.66;;;13.46;48.94
76011;BME280;64701;43.536;1.478;2023-01-31T15:10:59;100935.25;;;13.25;48.68
76011;BME280;64701;43.536;1.478;2023-01-31T15:16:08;100940.94;;;13.06;50.26
76011;BME280;64701;43.536;1.478;2023-01-31T15:18:34;100935.50;;;12.99;50.03
76011;BME280;64701;43.536;1.478;2023-01-31T15:21:01;100939.22;;;12.82;51.27
76011;BME280;64701;43.536;1.478;2023-01-31T15:23:28;100939.25;;;12.74;51.42
76011;BME280;64701;43.536;1.478;2023-01-31T15:25:55;100939.75;;;12.69;50.59
76011;BME280;64701;43.536;1.478;2023-01-31T15:28:26;100945.78;;;12.55;52.83
76011;BME280;64701;43.536;1.478;2023-01-31T15:30:55;100952.91;;;12.55;52.05
76011;BME280;64701;43.536;1.478;2023-01-31T15:40:46;100947.09;;;12.59;52.12
76011;BME280;64701;43.536;1.478;2023-01-31T15:43:21;100948.91;;;12.67;50.91
76011;BME280;64701;43.536;1.478;2023-01-31T15:45:50;100950.22;;;12.71;52.14
76011;BME280;64701;43.536;1.478;2023-01-31T15:48:17;100951.06;;;12.63;53.60
76011;BME280;64701;43.536;1.478;2023-01-31T15:50:50;100943.09;;;12.63;52.53